createdAt,value
2022-12-07T00:00:00.785Z,100793.00
2022-12-07T00:02:29.655Z,100794.00
2022-12-07T00:04:58.384Z,100793.00
2022-12-07T00:07:28.468Z,100785.00
2022-12-07T00:09:57.100Z,100791.00
2022-12-07T00:12:25.785Z,100787.00
2022-12-07T00:14:54.490Z,100797.00
2022-12-07T00:17:23.411Z,100803.00
2022-12-07T00:19:52.082Z,100797.00
2022-12-07T00:22:20.834Z,100791.00
2022-12-07T00:24:50.918Z,100786.00
2022-12-07T00:27:19.562Z,100802.00
2022-12-07T00:29:48.332Z,100797.00
2022-12-07T00:32:17.046Z,100801.00
2022-12-07T00:34:45.766Z,100802.00
2022-12-07T00:37:14.629Z,100785.00
2022-12-07T00:39:43.301Z,100799.00
2022-12-07T00:42:13.331Z,100801.00
2022-12-07T00:44:41.970Z,100794.00
2022-12-07T00:47:10.661Z,100791.00
2022-12-07T00:49:39.471Z,100794.00
2022-12-07T00:52:08.108Z,100789.00
2022-12-07T00:54:36.745Z,100797.00
2022-12-07T00:57:05.557Z,100794.00
2022-12-07T00:59:35.882Z,100796.00
2022-12-07T01:02:04.583Z,100793.00
2022-12-07T01:04:35.928Z,100797.00
2022-12-07T01:07:04.669Z,100782.00
2022-12-07T01:09:33.596Z,100797.00
2022-12-07T01:12:02.273Z,100795.00
2022-12-07T01:14:31.000Z,100796.00
2022-12-07T01:17:01.089Z,100796.00
2022-12-07T01:19:29.861Z,100793.00
2022-12-07T01:21:58.592Z,100797.00
2022-12-07T01:24:27.223Z,100797.00
2022-12-07T01:26:55.908Z,100802.00
2022-12-07T01:29:24.573Z,100792.00
2022-12-07T01:31:53.238Z,100796.00
2022-12-07T01:34:23.324Z,100801.00
2022-12-07T01:36:52.046Z,100798.00
2022-12-07T01:39:20.754Z,100801.00
2022-12-07T01:41:49.653Z,100803.00
2022-12-07T01:44:25.241Z,100801.00
2022-12-07T01:46:56.877Z,100796.00
2022-12-07T01:49:33.875Z,100793.00
2022-12-07T01:52:19.699Z,100794.00
2022-12-07T01:54:50.826Z,100797.00
2022-12-07T01:57:20.583Z,100790.00
2022-12-07T01:59:53.213Z,100800.00
2022-12-07T02:02:28.680Z,100790.00
2022-12-07T02:05:02.363Z,100789.00
2022-12-07T02:07:34.901Z,100781.00
2022-12-07T02:10:16.675Z,100777.00
2022-12-07T02:12:48.634Z,100786.00
2022-12-07T02:16:06.127Z,100791.00
2022-12-07T02:18:52.582Z,100786.00
2022-12-07T02:21:36.727Z,100786.00
2022-12-07T02:24:33.527Z,100790.00
2022-12-07T02:27:39.456Z,100781.00
2022-12-07T02:30:12.618Z,100767.00
2022-12-07T02:32:55.633Z,100772.00
2022-12-07T02:35:32.760Z,100770.00
2022-12-07T02:38:13.082Z,100771.00
2022-12-07T02:40:49.770Z,100773.00
2022-12-07T02:43:24.214Z,100769.00
2022-12-07T02:45:58.761Z,100775.00
2022-12-07T02:48:29.743Z,100762.00
2022-12-07T02:50:58.506Z,100761.00
2022-12-07T02:53:35.981Z,100773.00
2022-12-07T02:56:18.860Z,100767.00
2022-12-07T02:59:04.489Z,100754.00
2022-12-07T03:01:50.974Z,100764.00
2022-12-07T03:04:39.275Z,100763.00
2022-12-07T03:07:20.916Z,100770.00
2022-12-07T03:10:02.350Z,100753.00
2022-12-07T03:12:41.703Z,100758.00
2022-12-07T03:15:18.929Z,100754.00
2022-12-07T03:17:51.398Z,100756.00
2022-12-07T03:20:24.287Z,100745.00
2022-12-07T03:22:55.946Z,100748.00
2022-12-07T03:25:25.859Z,100756.00
2022-12-07T03:27:59.455Z,100762.00
2022-12-07T03:30:35.354Z,100763.00
2022-12-07T03:33:11.399Z,100750.00
2022-12-07T03:35:45.239Z,100749.00
2022-12-07T03:38:22.792Z,100758.00
2022-12-07T03:41:02.233Z,100748.00
2022-12-07T03:43:32.054Z,100761.00
2022-12-07T03:46:12.027Z,100744.00
2022-12-07T03:48:52.323Z,100742.00
2022-12-07T03:51:28.807Z,100738.00
2022-12-07T03:54:07.943Z,100743.00
2022-12-07T03:56:38.829Z,100739.00
2022-12-07T03:59:08.475Z,100738.00
2022-12-07T04:01:37.487Z,100743.00
2022-12-07T04:04:07.704Z,100740.00
2022-12-07T04:06:36.512Z,100734.00
2022-12-07T04:09:05.509Z,100733.00
2022-12-07T04:11:34.191Z,100726.00
2022-12-07T04:14:21.368Z,100733.00
2022-12-07T04:16:52.244Z,100728.00
2022-12-07T04:19:26.260Z,100719.00
2022-12-07T04:21:54.923Z,100738.00
2022-12-07T04:24:24.840Z,100730.00
2022-12-07T04:26:54.130Z,100725.00
2022-12-07T04:29:23.489Z,100730.00
2022-12-07T04:31:53.057Z,100718.00
2022-12-07T04:34:23.370Z,100722.00
2022-12-07T04:36:52.133Z,100719.00
2022-12-07T04:39:24.990Z,100729.00
2022-12-07T04:41:54.124Z,100718.00
2022-12-07T04:44:24.152Z,100709.00
2022-12-07T04:46:53.990Z,100718.00
2022-12-07T04:49:25.172Z,100720.00
2022-12-07T04:51:54.835Z,100730.00
2022-12-07T04:54:23.904Z,100729.00
2022-12-07T04:56:52.695Z,100728.00
2022-12-07T04:59:21.412Z,100716.00
2022-12-07T05:01:50.306Z,100709.00
2022-12-07T05:04:19.648Z,100719.00
2022-12-07T05:06:49.801Z,100724.00
2022-12-07T05:09:18.510Z,100718.00
2022-12-07T05:11:47.209Z,100720.00
2022-12-07T05:14:18.564Z,100719.00
2022-12-07T05:16:49.980Z,100720.00
2022-12-07T05:19:19.881Z,100716.00
2022-12-07T05:21:50.212Z,100711.00
2022-12-07T05:24:19.739Z,100715.00
2022-12-07T05:26:48.633Z,100710.00
2022-12-07T05:29:19.204Z,100713.00
2022-12-07T05:31:48.308Z,100711.00
2022-12-07T05:34:17.164Z,100704.00
2022-12-07T05:36:45.788Z,100718.00
2022-12-07T05:39:16.044Z,100710.00
2022-12-07T05:42:02.151Z,100713.00
2022-12-07T05:44:30.885Z,100713.00
2022-12-07T05:46:59.625Z,100716.00
2022-12-07T05:49:28.282Z,100710.00
2022-12-07T05:51:57.046Z,100712.00
2022-12-07T05:54:27.269Z,100711.00
2022-12-07T05:56:55.974Z,100708.00
2022-12-07T05:59:23.856Z,100714.00
2022-12-07T06:01:53.771Z,100709.00
2022-12-07T06:04:23.940Z,100709.00
2022-12-07T06:06:52.696Z,100711.00
2022-12-07T06:09:22.527Z,100706.00
2022-12-07T06:12:10.615Z,100705.00
2022-12-07T06:14:39.675Z,100710.00
2022-12-07T06:17:08.960Z,100710.00
2022-12-07T06:19:38.369Z,100702.00
2022-12-07T06:22:07.527Z,100707.00
2022-12-07T06:24:36.394Z,100704.00
2022-12-07T06:27:07.435Z,100701.00
2022-12-07T06:29:36.225Z,100702.00
2022-12-07T06:32:05.902Z,100708.00
2022-12-07T06:34:34.683Z,100690.00
2022-12-07T06:37:03.499Z,100705.00
2022-12-07T06:39:32.798Z,100708.00
2022-12-07T06:42:02.249Z,100707.00
2022-12-07T06:44:32.318Z,100707.00
2022-12-07T06:47:31.810Z,100707.00
2022-12-07T06:49:51.017Z,100712.00
2022-12-07T06:52:19.864Z,100708.00
2022-12-07T06:54:48.536Z,100709.00
2022-12-07T06:57:17.237Z,100711.00
2022-12-07T06:59:47.351Z,100719.00
2022-12-07T07:02:16.156Z,100711.00
2022-12-07T07:04:45.045Z,100721.00
2022-12-07T07:07:13.814Z,100719.00
2022-12-07T07:09:42.634Z,100715.00
2022-12-07T07:12:11.328Z,100711.00
2022-12-07T07:14:40.172Z,100716.00
2022-12-07T07:17:10.323Z,100707.00
2022-12-07T07:19:39.287Z,100705.00
2022-12-07T07:22:08.028Z,100706.00
2022-12-07T07:24:36.679Z,100707.00
2022-12-07T07:27:05.485Z,100709.00
2022-12-07T07:29:34.233Z,100713.00
2022-12-07T07:32:06.619Z,100701.00
2022-12-07T07:34:37.342Z,100706.00
2022-12-07T07:37:06.490Z,100702.00
2022-12-07T07:39:35.269Z,100707.00
2022-12-07T07:42:03.924Z,100708.00
2022-12-07T07:44:35.662Z,100710.00
2022-12-07T07:47:05.848Z,100710.00
2022-12-07T07:49:36.216Z,100709.00
2022-12-07T07:52:05.444Z,100698.00
2022-12-07T07:54:34.288Z,100714.00
2022-12-07T07:57:02.982Z,100707.00
2022-12-07T07:59:31.712Z,100711.00
2022-12-07T08:02:00.572Z,100714.00
2022-12-07T08:04:29.348Z,100707.00
2022-12-07T08:06:59.648Z,100702.00
2022-12-07T08:09:28.272Z,100708.00
2022-12-07T08:11:56.914Z,100709.00
2022-12-07T08:14:28.476Z,100707.00
2022-12-07T08:16:57.219Z,100704.00
2022-12-07T08:19:26.246Z,100702.00
2022-12-07T08:21:56.477Z,100701.00
2022-12-07T08:24:27.300Z,100705.00
2022-12-07T08:26:56.190Z,100702.00
2022-12-07T08:29:24.842Z,100694.00
2022-12-07T08:31:53.691Z,100697.00
2022-12-07T08:34:22.385Z,100697.00
2022-12-07T08:36:51.233Z,100696.00
2022-12-07T08:39:35.420Z,100695.00
2022-12-07T08:42:05.803Z,100684.00
2022-12-07T08:44:34.431Z,100693.00
2022-12-07T08:47:07.701Z,100685.00
2022-12-07T08:49:43.676Z,100688.00
2022-12-07T08:52:12.363Z,100686.00
2022-12-07T08:54:43.339Z,100682.00
2022-12-07T08:57:14.297Z,100681.00
2022-12-07T08:59:43.281Z,100682.00
2022-12-07T09:02:12.252Z,100673.00
2022-12-07T09:04:41.054Z,100678.00
2022-12-07T09:07:09.931Z,100672.00
2022-12-07T09:09:38.713Z,100675.00
2022-12-07T09:12:07.640Z,100676.00
2022-12-07T09:14:37.791Z,100675.00
2022-12-07T09:17:11.382Z,100665.00
2022-12-07T09:19:42.578Z,100666.00
2022-12-07T09:22:11.882Z,100675.00
2022-12-07T09:24:40.610Z,100668.00
2022-12-07T09:27:09.278Z,100659.00
2022-12-07T09:29:39.687Z,100671.00
2022-12-07T09:32:11.654Z,100665.00
2022-12-07T09:34:40.853Z,100670.00
2022-12-07T09:37:09.937Z,100662.00
2022-12-07T09:39:48.178Z,100660.00
2022-12-07T09:42:31.752Z,100664.00
2022-12-07T09:45:03.615Z,100663.00
2022-12-07T09:47:35.082Z,100663.00
2022-12-07T09:50:09.683Z,100661.00
2022-12-07T09:52:39.339Z,100655.00
2022-12-07T09:55:16.179Z,100645.00
2022-12-07T09:57:45.689Z,100649.00
2022-12-07T10:00:19.789Z,100653.00
2022-12-07T10:02:55.425Z,100648.00
2022-12-07T10:05:32.416Z,100644.00
2022-12-07T10:08:01.915Z,100638.00
2022-12-07T10:10:38.537Z,100630.00
2022-12-07T10:13:10.390Z,100636.00
2022-12-07T10:15:51.996Z,100640.00
2022-12-07T10:18:33.681Z,100622.00
2022-12-07T10:21:13.768Z,100632.00
2022-12-07T10:23:48.468Z,100632.00
2022-12-07T10:26:34.280Z,100632.00
2022-12-07T10:29:16.085Z,100626.00
2022-12-07T10:31:48.448Z,100627.00
2022-12-07T10:34:26.282Z,100612.00
2022-12-07T10:36:56.250Z,100613.00
2022-12-07T10:39:26.510Z,100618.00
2022-12-07T10:42:00.334Z,100616.00
2022-12-07T10:44:32.057Z,100619.00
2022-12-07T10:47:22.555Z,100613.00
2022-12-07T10:50:38.559Z,100608.00
2022-12-07T10:53:46.696Z,100603.00
2022-12-07T10:56:55.548Z,100606.00
2022-12-07T10:59:55.608Z,100606.00
2022-12-07T11:03:04.006Z,100602.00
2022-12-07T11:05:43.466Z,100601.00
2022-12-07T11:08:27.941Z,100596.00
2022-12-07T11:11:07.455Z,100602.00
2022-12-07T11:13:48.943Z,100599.00
2022-12-07T11:16:55.734Z,100592.00
2022-12-07T11:19:53.271Z,100588.00
2022-12-07T11:22:29.274Z,100587.00
2022-12-07T11:25:16.413Z,100605.00
2022-12-07T11:28:05.295Z,100598.00
2022-12-07T11:30:45.486Z,100596.00
2022-12-07T11:33:26.356Z,100592.00
2022-12-07T11:36:18.621Z,100582.00
2022-12-07T11:38:52.748Z,100590.00
2022-12-07T11:41:28.949Z,100574.00
2022-12-07T11:44:07.527Z,100577.00
2022-12-07T11:46:52.117Z,100588.00
2022-12-07T11:49:36.588Z,100578.00
2022-12-07T11:52:15.938Z,100572.00
2022-12-07T11:54:48.106Z,100571.00
2022-12-07T11:57:27.916Z,100572.00
2022-12-07T12:00:04.117Z,100579.00
2022-12-07T12:02:42.034Z,100576.00
2022-12-07T12:05:19.919Z,100571.00
2022-12-07T12:11:05.915Z,100575.00
2022-12-07T12:17:41.880Z,100561.00
2022-12-07T12:20:25.330Z,100561.00
2022-12-07T12:23:01.658Z,100558.00
2022-12-07T12:25:38.583Z,100554.00
2022-12-07T12:28:07.556Z,100558.00
2022-12-07T12:30:40.690Z,100548.00
2022-12-07T12:33:22.448Z,100548.00
2022-12-07T12:36:27.784Z,100550.00
2022-12-07T12:39:15.768Z,100555.00
2022-12-07T12:42:08.802Z,100545.00
2022-12-07T12:45:21.749Z,100537.00
2022-12-07T12:48:01.458Z,100536.00
2022-12-07T12:50:34.848Z,100541.00
2022-12-07T12:53:24.316Z,100536.00
2022-12-07T12:56:41.803Z,100539.00
2022-12-07T12:59:32.004Z,100540.00
2022-12-07T13:02:24.221Z,100539.00
2022-12-07T13:04:58.841Z,100529.00
2022-12-07T13:08:01.975Z,100526.00
2022-12-07T13:10:45.845Z,100522.00
2022-12-07T13:14:10.351Z,100528.00
2022-12-07T13:16:55.505Z,100521.00
2022-12-07T13:20:01.464Z,100517.00
2022-12-07T13:22:51.950Z,100524.00
2022-12-07T13:25:53.281Z,100516.00
2022-12-07T13:28:27.448Z,100515.00
2022-12-07T13:31:16.608Z,100513.00
2022-12-07T13:33:48.789Z,100512.00
2022-12-07T13:36:24.500Z,100504.00
2022-12-07T13:38:59.742Z,100508.00
2022-12-07T13:41:30.358Z,100506.00
2022-12-07T13:44:05.321Z,100507.00
2022-12-07T13:46:51.037Z,100490.00
2022-12-07T13:49:26.142Z,100497.00
2022-12-07T13:51:57.122Z,100484.00
2022-12-07T13:54:25.843Z,100480.00
2022-12-07T13:56:55.935Z,100494.00
2022-12-07T13:59:27.970Z,100487.00
2022-12-07T14:01:57.329Z,100485.00
2022-12-07T14:04:38.231Z,100488.00
2022-12-07T14:07:28.655Z,100475.00
2022-12-07T14:10:02.344Z,100476.00
2022-12-07T14:12:38.895Z,100473.00
2022-12-07T14:15:21.862Z,100473.00
2022-12-07T14:17:59.785Z,100469.00
2022-12-07T14:20:37.485Z,100473.00
2022-12-07T14:23:11.116Z,100466.00
2022-12-07T14:25:51.557Z,100461.00
2022-12-07T14:28:31.783Z,100455.00
2022-12-07T14:31:01.107Z,100467.00
2022-12-07T14:33:30.399Z,100461.00
2022-12-07T14:36:00.538Z,100462.00
2022-12-07T14:38:40.617Z,100457.00
2022-12-07T14:41:34.590Z,100459.00
2022-12-07T14:44:22.536Z,100462.00
2022-12-07T14:49:43.158Z,100453.00
2022-12-07T14:55:16.550Z,100438.00
2022-12-07T14:57:45.450Z,100443.00
2022-12-07T15:00:18.922Z,100449.00
2022-12-07T15:02:48.707Z,100445.00
2022-12-07T15:05:19.318Z,100437.00
2022-12-07T15:07:51.042Z,100433.00
2022-12-07T15:10:24.728Z,100433.00
2022-12-07T15:12:53.859Z,100427.00
2022-12-07T15:15:22.590Z,100432.00
2022-12-07T15:17:51.286Z,100425.00
2022-12-07T15:20:20.253Z,100424.00
2022-12-07T15:22:50.731Z,100415.00
2022-12-07T15:25:19.566Z,100419.00
2022-12-07T15:27:48.215Z,100422.00
2022-12-07T15:30:17.331Z,100420.00
2022-12-07T15:32:46.273Z,100413.00
2022-12-07T15:35:15.044Z,100417.00
2022-12-07T15:37:43.879Z,100425.00
2022-12-07T15:40:15.648Z,100416.00
2022-12-07T15:42:44.418Z,100416.00
2022-12-07T15:45:14.414Z,100411.00
2022-12-07T15:50:34.529Z,100409.00
2022-12-07T15:53:03.171Z,100406.00
2022-12-07T15:55:33.335Z,100403.00
2022-12-07T15:58:03.045Z,100387.00
2022-12-07T16:00:31.720Z,100402.00
2022-12-07T16:03:00.539Z,100394.00
2022-12-07T16:05:29.307Z,100390.00
2022-12-07T16:07:58.347Z,100386.00
2022-12-07T16:10:27.245Z,100385.00
2022-12-07T16:12:57.487Z,100384.00
2022-12-07T16:15:27.969Z,100378.00
2022-12-07T16:17:56.653Z,100378.00
2022-12-07T16:20:25.339Z,100376.00
2022-12-07T16:22:55.492Z,100369.00
2022-12-07T16:25:25.028Z,100365.00
2022-12-07T16:27:54.257Z,100367.00
2022-12-07T16:30:24.578Z,100372.00
2022-12-07T16:32:55.800Z,100380.00
2022-12-07T16:35:27.688Z,100387.00
2022-12-07T16:37:56.449Z,100374.00
2022-12-07T16:40:25.153Z,100378.00
2022-12-07T16:42:53.901Z,100373.00
2022-12-07T16:45:23.978Z,100373.00
2022-12-07T16:47:52.778Z,100368.00
2022-12-07T16:50:21.801Z,100383.00
2022-12-07T16:52:50.518Z,100374.00
2022-12-07T16:55:19.192Z,100368.00
2022-12-07T16:57:48.462Z,100367.00
2022-12-07T17:00:18.470Z,100362.00
2022-12-07T17:02:48.528Z,100357.00
2022-12-07T17:05:17.162Z,100362.00
2022-12-07T17:07:45.826Z,100372.00
2022-12-07T17:10:14.543Z,100357.00
2022-12-07T17:12:43.845Z,100354.00
2022-12-07T17:15:17.894Z,100349.00
2022-12-07T17:17:53.253Z,100343.00
2022-12-07T17:20:23.399Z,100345.00
2022-12-07T17:22:52.662Z,100344.00
2022-12-07T17:25:22.639Z,100345.00
2022-12-07T17:27:51.581Z,100337.00
2022-12-07T17:30:20.922Z,100334.00
2022-12-07T17:32:54.284Z,100333.00
2022-12-07T17:35:23.291Z,100335.00
2022-12-07T17:37:52.239Z,100333.00
2022-12-07T17:40:21.152Z,100323.00
2022-12-07T17:42:51.610Z,100324.00
2022-12-07T17:45:20.733Z,100320.00
2022-12-07T17:47:51.192Z,100321.00
2022-12-07T17:50:41.655Z,100322.00
2022-12-07T17:53:12.489Z,100332.00
2022-12-07T17:56:12.099Z,100320.00
2022-12-07T17:58:30.743Z,100314.00
2022-12-07T18:01:02.850Z,100320.00
2022-12-07T18:03:34.167Z,100324.00
2022-12-07T18:06:04.242Z,100326.00
2022-12-07T18:08:39.056Z,100324.00
2022-12-07T18:11:11.084Z,100313.00
2022-12-07T18:13:40.070Z,100316.00
2022-12-07T18:16:13.607Z,100313.00
2022-12-07T18:18:49.149Z,100310.00
2022-12-07T18:21:28.484Z,100325.00
2022-12-07T18:24:02.386Z,100314.00
2022-12-07T18:26:35.925Z,100304.00
2022-12-07T18:29:08.524Z,100307.00
2022-12-07T18:31:38.320Z,100313.00
2022-12-07T18:34:13.524Z,100302.00
2022-12-07T18:36:46.204Z,100300.00
2022-12-07T18:39:20.479Z,100300.00
2022-12-07T18:41:49.839Z,100295.00
2022-12-07T18:44:18.926Z,100287.00
2022-12-07T18:46:50.605Z,100293.00
2022-12-07T18:49:30.594Z,100294.00
2022-12-07T18:52:00.907Z,100295.00
2022-12-07T18:54:29.601Z,100293.00
2022-12-07T18:56:58.236Z,100291.00
2022-12-07T18:59:44.171Z,100281.00
2022-12-07T19:02:13.157Z,100274.00
2022-12-07T19:04:43.391Z,100285.00
2022-12-07T19:07:12.185Z,100279.00
2022-12-07T19:09:41.518Z,100278.00
2022-12-07T19:12:14.026Z,100281.00
2022-12-07T19:14:43.327Z,100286.00
2022-12-07T19:17:14.673Z,100270.00
2022-12-07T19:19:47.261Z,100270.00
2022-12-07T19:22:18.841Z,100260.00
2022-12-07T19:24:52.235Z,100267.00
2022-12-07T19:27:21.848Z,100269.00
2022-12-07T19:29:51.207Z,100264.00
2022-12-07T19:32:21.015Z,100261.00
2022-12-07T19:34:51.560Z,100265.00
2022-12-07T19:37:20.324Z,100265.00
2022-12-07T19:39:51.915Z,100268.00
2022-12-07T19:42:20.711Z,100266.00
2022-12-07T19:44:49.497Z,100254.00
2022-12-07T19:47:18.620Z,100265.00
2022-12-07T19:49:47.680Z,100270.00
2022-12-07T19:52:17.843Z,100262.00
2022-12-07T19:54:46.605Z,100267.00
2022-12-07T19:57:17.849Z,100262.00
2022-12-07T19:59:46.982Z,100254.00
2022-12-07T20:02:17.392Z,100254.00
2022-12-07T20:04:46.385Z,100259.00
2022-12-07T20:07:15.130Z,100257.00
2022-12-07T20:09:45.226Z,100261.00
2022-12-07T20:12:31.018Z,100255.00
2022-12-07T20:14:59.790Z,100262.00
2022-12-07T20:17:28.611Z,100261.00
2022-12-07T20:19:57.351Z,100254.00
2022-12-07T20:22:26.157Z,100250.00
2022-12-07T20:24:56.254Z,100252.00
2022-12-07T20:27:24.965Z,100247.00
2022-12-07T20:29:53.741Z,100258.00
2022-12-07T20:32:22.415Z,100253.00
2022-12-07T20:34:51.131Z,100247.00
2022-12-07T20:37:19.848Z,100250.00
2022-12-07T20:39:48.514Z,100250.00
2022-12-07T20:42:35.751Z,100251.00
2022-12-07T20:45:06.258Z,100248.00
2022-12-07T20:47:35.799Z,100262.00
2022-12-07T20:50:05.719Z,100254.00
2022-12-07T20:52:34.435Z,100261.00
2022-12-07T20:55:03.309Z,100261.00
2022-12-07T20:57:36.887Z,100257.00
2022-12-07T21:00:10.480Z,100254.00
2022-12-07T21:02:41.910Z,100250.00
2022-12-07T21:05:11.361Z,100246.00
2022-12-07T21:07:40.237Z,100243.00
2022-12-07T21:10:10.071Z,100239.00
2022-12-07T21:12:41.482Z,100249.00
2022-12-07T21:15:11.043Z,100235.00
2022-12-07T21:17:39.996Z,100237.00
2022-12-07T21:20:10.582Z,100244.00
2022-12-07T21:22:39.318Z,100245.00
2022-12-07T21:25:09.075Z,100235.00
2022-12-07T21:27:37.779Z,100232.00
2022-12-07T21:30:09.584Z,100232.00
2022-12-07T21:32:38.215Z,100236.00
2022-12-07T21:35:07.736Z,100222.00
2022-12-07T21:37:36.537Z,100224.00
2022-12-07T21:40:06.339Z,100231.00
2022-12-07T21:42:34.971Z,100235.00
2022-12-07T21:45:03.994Z,100227.00
2022-12-07T21:47:34.346Z,100215.00
2022-12-07T21:50:03.003Z,100223.00
2022-12-07T21:52:32.100Z,100210.00
2022-12-07T21:55:01.079Z,100204.00
2022-12-07T21:57:30.419Z,100199.00
2022-12-07T21:59:59.043Z,100214.00
2022-12-07T22:02:27.740Z,100213.00
2022-12-07T22:04:57.984Z,100213.00
2022-12-07T22:07:26.642Z,100210.00
2022-12-07T22:09:55.258Z,100217.00
2022-12-07T22:12:23.888Z,100217.00
2022-12-07T22:15:06.747Z,100223.00
2022-12-07T22:17:35.795Z,100215.00
2022-12-07T22:20:07.424Z,100210.00
2022-12-07T22:22:36.103Z,100211.00
2022-12-07T22:25:05.272Z,100202.00
2022-12-07T22:27:34.450Z,100198.00
2022-12-07T22:30:03.129Z,100197.00
2022-12-07T22:32:48.995Z,100210.00
2022-12-07T22:35:19.827Z,100196.00
2022-12-07T22:37:48.544Z,100199.00
2022-12-07T22:40:17.345Z,100191.00
2022-12-07T22:42:46.061Z,100183.00
2022-12-07T22:45:14.728Z,100180.00
2022-12-07T22:47:43.416Z,100178.00
2022-12-07T22:50:12.836Z,100174.00
2022-12-07T22:52:43.204Z,100179.00
2022-12-07T22:55:11.967Z,100176.00
2022-12-07T22:57:41.517Z,100179.00
2022-12-07T23:00:11.840Z,100172.00
2022-12-07T23:02:40.670Z,100169.00
2022-12-07T23:05:10.581Z,100177.00
2022-12-07T23:07:39.334Z,100174.00
2022-12-07T23:10:11.382Z,100168.00
2022-12-07T23:12:57.581Z,100162.00
2022-12-07T23:15:26.211Z,100168.00
2022-12-07T23:17:54.867Z,100164.00
2022-12-07T23:20:23.599Z,100173.00
2022-12-07T23:22:52.320Z,100160.00
2022-12-07T23:25:22.343Z,100157.00
2022-12-07T23:27:51.143Z,100169.00
2022-12-07T23:30:19.994Z,100174.00
2022-12-07T23:32:48.645Z,100166.00
2022-12-07T23:35:17.365Z,100149.00
2022-12-07T23:37:46.018Z,100145.00
2022-12-07T23:40:14.747Z,100156.00
2022-12-07T23:42:44.778Z,100148.00
2022-12-07T23:45:13.382Z,100142.00
2022-12-07T23:47:42.055Z,100141.00
2022-12-07T23:50:11.586Z,100140.00
2022-12-07T23:52:40.243Z,100140.00
2022-12-07T23:55:10.486Z,100151.00
2022-12-07T23:57:39.184Z,100137.00
